Time;durP1;ratioP1;P1;durP2;ratioP2;P2;SDS_P1;SDS_P2;PMS_P1;PMS_P2;Temp;Humidity;BMP_temperature;BMP_pressure;BME280_temperature;BME280_humidity;BME280_pressure;Samples;Min_cycle;Max_cycle;Signal;HPM_P1;HPM_P2
2023/09/19 00:02:08;;;;;;;0.30;0.30;;;;;;;19.05;51.38;101469.03;4803618;29;20406;-79
2023/09/19 00:04:33;;;;;;;0.10;0.10;;;;;;;19.02;51.54;101466.78;4802026;29;20811;-80
2023/09/19 00:06:59;;;;;;;0.10;0.10;;;;;;;19.08;51.21;101456.00;4804026;29;20946;-80
2023/09/19 00:09:28;;;;;;;0.20;0.20;;;;;;;19.07;51.31;101450.88;4803034;29;20475;-79
2023/09/19 00:11:54;;;;;;;0.40;0.40;;;;;;;19.12;51.18;101442.97;4802841;29;20403;-79
2023/09/19 00:14:20;;;;;;;0.17;0.17;;;;;;;19.17;51.16;101434.31;4803747;29;20430;-80
2023/09/19 00:16:48;;;;;;;0.30;0.30;;;;;;;19.06;51.64;101430.38;4803630;29;20407;-79
2023/09/19 00:19:16;;;;;;;0.10;0.10;;;;;;;19.01;51.95;101420.25;4803682;29;20495;-80
2023/09/19 00:21:41;;;;;;;0.27;0.27;;;;;;;19.07;51.86;101424.00;4804670;29;20543;-79
2023/09/19 00:24:08;;;;;;;0.30;0.22;;;;;;;19.12;51.60;101426.03;4803522;29;20501;-80
2023/09/19 00:26:34;;;;;;;0.10;0.10;;;;;;;19.13;51.81;101444.63;4805131;29;20906;-80
2023/09/19 00:29:08;;;;;;;0.08;0.08;;;;;;;19.12;52.13;101442.97;4803303;29;20423;-80
2023/09/19 00:31:34;;;;;;;0.10;0.10;;;;;;;19.15;51.93;101444.44;4804746;29;20445;-79
2023/09/19 00:34:06;;;;;;;1.40;0.40;;;;;;;19.12;52.15;101444.84;4803341;29;20434;-79
2023/09/19 00:36:39;;;;;;;0.30;0.30;;;;;;;19.25;51.86;101445.66;4803899;29;20406;-80
2023/09/19 00:39:05;;;;;;;0.10;0.10;;;;;;;19.38;51.44;101443.97;4788356;29;20421;-81
2023/09/19 00:41:32;;;;;;;0.15;0.15;;;;;;;19.52;51.05;101442.91;4804506;29;20402;-79
2023/09/19 00:44:00;;;;;;;0.05;0.05;;;;;;;19.55;50.89;101431.72;4802850;29;20407;-80
2023/09/19 00:46:30;;;;;;;0.20;0.20;;;;;;;19.55;51.00;101433.59;4803052;29;20403;-80
2023/09/19 00:48:56;;;;;;;0.10;0.10;;;;;;;19.56;50.99;101425.31;4802827;29;20406;-79
2023/09/19 00:51:25;;;;;;;0.10;0.10;;;;;;;19.45;51.47;101434.84;4802987;29;20442;-80
2023/09/19 00:53:52;;;;;;;0.10;0.10;;;;;;;19.39;52.03;101440.25;4802682;29;20435;-79
2023/09/19 00:56:18;;;;;;;0.10;0.10;;;;;;;19.33;52.16;101439.22;4787408;29;20433;-80
2023/09/19 00:58:47;;;;;;;0.10;0.10;;;;;;;19.41;51.96;101440.84;4802843;29;20923;-81
2023/09/19 01:01:14;;;;;;;0.20;0.20;;;;;;;19.45;51.94;101428.66;4804115;29;20828;-81
2023/09/19 01:03:44;;;;;;;0.20;0.20;;;;;;;19.53;51.62;101428.41;4801705;29;20807;-81
2023/09/19 01:06:09;;;;;;;0.20;0.20;;;;;;;19.62;51.42;101427.13;4802090;29;20814;-80
2023/09/19 01:08:36;;;;;;;0.10;0.10;;;;;;;19.70;51.13;101427.94;4803692;29;20926;-80
2023/09/19 01:11:17;;;;;;;0.25;0.25;;;;;;;19.68;51.22;101439.75;4787555;29;20409;-80
2023/09/19 01:14:17;;;;;;;0.17;0.17;;;;;;;19.57;51.55;101435.03;4802260;29;20772;-80
2023/09/19 01:17:20;;;;;;;0.10;0.10;;;;;;;19.49;51.99;101449.53;4802282;29;20403;-80
2023/09/19 01:20:28;;;;;;;0.03;0.03;;;;;;;19.56;51.72;101452.19;4775102;29;20505;-79
2023/09/19 01:23:14;;;;;;;0.17;0.17;;;;;;;19.59;51.53;101442.88;4774933;29;20423;-80
2023/09/19 01:25:49;;;;;;;0.10;0.10;;;;;;;19.61;51.39;101440.81;4803301;29;20419;-79
2023/09/19 01:28:47;;;;;;;0.10;0.10;;;;;;;19.61;51.37;101435.44;4802094;29;20438;-78
2023/09/19 01:31:19;;;;;;;0.30;0.30;;;;;;;19.67;51.07;101438.09;4802083;29;20501;-78
2023/09/19 01:34:00;;;;;;;0.30;0.30;;;;;;;19.64;51.17;101438.53;4787235;29;20419;-77
2023/09/19 01:36:27;;;;;;;0.10;0.10;;;;;;;19.66;51.34;101446.38;4802265;29;20481;-78
2023/09/19 01:39:00;;;;;;;0.10;0.10;;;;;;;19.62;51.32;101437.91;4802066;29;20407;-78
2023/09/19 01:41:55;;;;;;;0.90;0.30;;;;;;;19.60;51.62;101442.66;4802231;29;20504;-78
2023/09/19 01:44:46;;;;;;;0.65;0.65;;;;;;;19.61;51.70;101448.88;4795918;29;20438;-78
2023/09/19 01:47:26;;;;;;;0.20;0.20;;;;;;;19.52;52.21;101444.75;4789547;29;20792;-77
2023/09/19 01:50:18;;;;;;;0.20;0.20;;;;;;;19.39;52.64;101448.31;4801993;29;20414;-78
2023/09/19 01:52:59;;;;;;;0.10;0.10;;;;;;;19.19;53.20;101438.41;4802985;29;20828;-78
2023/09/19 01:55:28;;;;;;;0.10;0.10;;;;;;;19.23;53.19;101447.75;4787396;29;20489;-79
2023/09/19 01:58:04;;;;;;;0.10;0.10;;;;;;;19.31;52.54;101438.63;4786779;29;20995;-78
2023/09/19 02:00:34;;;;;;;0.10;0.10;;;;;;;19.41;52.52;101447.06;4801717;29;20887;-78
2023/09/19 02:03:02;;;;;;;0.10;0.10;;;;;;;19.42;52.60;101440.66;4802719;29;20463;-79
2023/09/19 02:05:30;;;;;;;0.10;0.10;;;;;;;19.46;52.30;101436.53;4801550;29;20430;-80
2023/09/19 02:07:56;;;;;;;0.20;0.20;;;;;;;19.52;52.27;101444.75;4802858;29;20418;-80
2023/09/19 02:10:23;;;;;;;0.20;0.20;;;;;;;19.57;52.04;101431.50;4801888;29;20407;-80
2023/09/19 02:12:51;;;;;;;0.08;0.08;;;;;;;19.64;51.78;101435.84;4801656;29;20410;-80
2023/09/19 02:15:17;;;;;;;0.15;0.15;;;;;;;19.56;52.11;101435.25;4800728;29;20415;-79
2023/09/19 02:17:44;;;;;;;0.10;0.10;;;;;;;19.45;52.50;101442.09;4801757;29;20779;-79
2023/09/19 02:20:14;;;;;;;0.10;0.10;;;;;;;19.34;53.23;101457.03;4801479;29;20869;-81
2023/09/19 02:22:42;;;;;;;0.30;0.30;;;;;;;19.24;53.54;101453.94;4800728;29;20796;-79
2023/09/19 02:25:08;;;;;;;0.22;0.22;;;;;;;19.13;54.03;101449.19;4800842;29;20429;-78
2023/09/19 02:27:36;;;;;;;0.10;0.10;;;;;;;19.21;53.79;101444.44;4801130;29;20407;-78
2023/09/19 02:30:04;;;;;;;0.50;0.50;;;;;;;19.29;53.39;101443.38;4802727;29;20428;-79
2023/09/19 02:32:36;;;;;;;0.20;0.20;;;;;;;19.34;53.21;101446.25;4801492;29;20777;-78
2023/09/19 02:35:04;;;;;;;0.10;0.10;;;;;;;19.36;52.99;101440.69;4801285;29;20428;-80
2023/09/19 02:37:30;;;;;;;0.10;0.10;;;;;;;19.31;52.92;101441.31;4802658;29;20479;-81
2023/09/19 02:39:56;;;;;;;0.00;0.00;;;;;;;19.32;52.97;101444.81;4802512;29;20902;-81
2023/09/19 02:42:21;;;;;;;0.10;0.10;;;;;;;19.27;53.03;101434.69;4801173;29;20467;-81
2023/09/19 02:44:48;;;;;;;0.10;0.10;;;;;;;19.19;53.26;101442.97;4802312;29;20441;-81
2023/09/19 02:47:15;;;;;;;0.30;0.30;;;;;;;19.16;53.37;101435.31;4801158;29;20418;-81
2023/09/19 02:49:42;;;;;;;0.20;0.20;;;;;;;19.11;53.32;101422.53;4801152;29;20403;-80
2023/09/19 02:52:08;;;;;;;0.30;0.30;;;;;;;19.09;53.32;101430.78;4801279;29;20422;-80
2023/09/19 02:54:34;;;;;;;0.20;0.20;;;;;;;19.14;53.06;101424.81;4800543;29;20407;-80
2023/09/19 02:56:59;;;;;;;0.00;0.00;;;;;;;19.24;52.93;101425.19;4802541;29;20406;-80
2023/09/19 02:59:25;;;;;;;0.60;0.50;;;;;;;19.21;52.94;101422.09;4801090;29;20446;-80
2023/09/19 03:01:50;;;;;;;0.23;0.23;;;;;;;19.23;52.79;101425.38;4801005;29;20414;-78
2023/09/19 03:04:19;;;;;;;0.33;0.33;;;;;;;19.24;52.47;101419.81;4800735;29;20495;-79
2023/09/19 03:06:46;;;;;;;0.10;0.10;;;;;;;19.30;52.54;101418.13;4801041;29;20494;-79
2023/09/19 03:09:11;;;;;;;0.35;0.35;;;;;;;19.34;52.42;101407.78;4800980;29;20414;-81
2023/09/19 03:11:37;;;;;;;0.10;0.10;;;;;;;19.32;52.19;101408.03;4800977;29;20406;-79
2023/09/19 03:14:04;;;;;;;0.60;0.20;;;;;;;19.34;52.39;101408.63;4802544;29;20402;-80
2023/09/19 03:16:31;;;;;;;0.30;0.30;;;;;;;19.28;52.37;101414.84;4801056;29;20402;-80
2023/09/19 03:18:59;;;;;;;0.35;0.35;;;;;;;19.26;52.40;101409.66;4801591;29;21351;-80
2023/09/19 03:21:25;;;;;;;0.10;0.10;;;;;;;19.28;52.33;101409.44;4801917;29;20477;-80
2023/09/19 03:23:51;;;;;;;0.50;0.50;;;;;;;19.32;52.67;101426.00;4802023;29;20775;-79
2023/09/19 03:26:17;;;;;;;0.20;0.20;;;;;;;19.31;52.80;101429.72;4787231;29;20439;-79
2023/09/19 03:28:45;;;;;;;0.70;0.70;;;;;;;19.31;53.18;101424.34;4802603;29;20509;-79
2023/09/19 03:31:11;;;;;;;0.30;0.20;;;;;;;19.28;53.21;101414.84;4803861;29;20407;-80
2023/09/19 03:33:37;;;;;;;1.10;0.32;;;;;;;19.16;53.78;101417.34;4802719;29;21060;-79
2023/09/19 03:36:06;;;;;;;0.10;0.10;;;;;;;19.18;53.96;101415.28;4804393;29;20513;-79
2023/09/19 03:38:32;;;;;;;0.10;0.10;;;;;;;19.28;53.63;101417.53;4803936;29;20415;-79
2023/09/19 03:40:58;;;;;;;0.40;0.20;;;;;;;19.28;53.77;101422.91;4805386;29;20423;-81
2023/09/19 03:43:24;;;;;;;0.15;0.15;;;;;;;19.20;54.01;101415.91;4804350;29;20394;-81
2023/09/19 03:45:50;;;;;;;0.22;0.22;;;;;;;19.27;53.82;101411.31;4803619;29;20434;-81
2023/09/19 03:48:17;;;;;;;0.25;0.25;;;;;;;19.33;53.63;101411.53;4805908;29;20418;-79
2023/09/19 03:50:46;;;;;;;0.20;0.20;;;;;;;19.44;53.20;101419.75;4804761;29;20407;-79
2023/09/19 03:53:12;;;;;;;0.30;0.30;;;;;;;19.47;53.30;101410.44;4803716;29;20407;-80
2023/09/19 03:55:38;;;;;;;0.30;0.30;;;;;;;19.50;53.17;101407.34;4804951;29;20410;-80
2023/09/19 03:58:05;;;;;;;0.03;0.03;;;;;;;19.49;53.17;101405.69;4804099;29;20953;-80
2023/09/19 04:00:30;;;;;;;0.20;0.20;;;;;;;19.51;53.13;101413.53;4803841;29;20773;-80
2023/09/19 04:02:56;;;;;;;0.37;0.30;;;;;;;19.46;53.15;101408.78;4804894;29;20560;-80
2023/09/19 04:05:23;;;;;;;0.15;0.15;;;;;;;19.44;53.38;101409.00;4803966;29;20430;-81
2023/09/19 04:07:50;;;;;;;0.10;0.10;;;;;;;19.49;53.34;101411.06;4788297;29;20407;-82
2023/09/19 04:10:16;;;;;;;0.10;0.10;;;;;;;19.51;53.26;101408.16;4803711;29;20778;-84
2023/09/19 04:12:56;;;;;;;0.15;0.15;;;;;;;19.48;53.47;101407.56;4773366;29;20421;-83
2023/09/19 04:15:22;;;;;;;0.10;0.10;;;;;;;19.39;53.67;101391.84;4803413;29;20497;-82
2023/09/19 04:17:52;;;;;;;0.10;0.10;;;;;;;19.38;53.72;101395.59;4803378;29;20421;-82
2023/09/19 04:20:19;;;;;;;0.10;0.10;;;;;;;19.45;53.61;101397.22;4803720;29;20779;-82
2023/09/19 04:22:46;;;;;;;0.40;0.40;;;;;;;19.47;53.55;101399.69;4804014;29;20455;-81
2023/09/19 04:25:12;;;;;;;0.10;0.10;;;;;;;19.40;53.68;101391.63;4818535;29;20434;-81
2023/09/19 04:27:38;;;;;;;0.20;0.20;;;;;;;19.42;53.69;101392.25;4804690;29;20459;-80
2023/09/19 04:30:10;;;;;;;0.70;0.40;;;;;;;19.53;53.45;101398.84;4803522;29;20495;-82
2023/09/19 04:32:41;;;;;;;0.30;0.30;;;;;;;19.61;53.08;101400.47;4805150;29;20399;-80
2023/09/19 04:35:09;;;;;;;0.10;0.10;;;;;;;19.67;53.05;101388.84;4805056;29;20907;-81
2023/09/19 04:37:40;;;;;;;0.50;0.30;;;;;;;19.63;53.10;101398.41;4804568;29;20517;-82
2023/09/19 04:40:14;;;;;;;0.25;0.25;;;;;;;19.66;52.97;101389.88;4803248;29;20407;-83
2023/09/19 04:42:40;;;;;;;0.30;0.30;;;;;;;19.58;53.28;101390.13;4802881;29;20426;-80
2023/09/19 04:45:07;;;;;;;0.13;0.13;;;;;;;19.51;53.33;101392.03;4802652;29;20442;-80
2023/09/19 04:47:33;;;;;;;0.10;0.10;;;;;;;19.50;53.42;101391.22;4787430;29;20512;-80
2023/09/19 04:49:59;;;;;;;0.10;0.10;;;;;;;19.45;53.72;101388.31;4803696;29;20403;-79
2023/09/19 04:52:25;;;;;;;0.20;0.20;;;;;;;19.43;53.66;101385.84;4804892;29;20501;-80
2023/09/19 04:54:50;;;;;;;0.40;0.40;;;;;;;19.49;53.72;101400.31;4803865;29;20486;-79
2023/09/19 04:57:16;;;;;;;0.10;0.10;;;;;;;19.51;53.45;101403.59;4802911;29;20418;-81
2023/09/19 04:59:41;;;;;;;0.10;0.10;;;;;;;19.43;53.33;101428.06;4788326;29;20426;-80
2023/09/19 05:02:12;;;;;;;0.90;0.90;;;;;;;19.37;53.56;101434.25;4804536;29;20405;-78
2023/09/19 05:04:38;;;;;;;0.30;0.30;;;;;;;19.28;53.83;101430.97;4804722;29;20461;-81
2023/09/19 05:07:04;;;;;;;0.30;0.30;;;;;;;19.42;54.00;101419.13;4805453;29;20411;-81
2023/09/19 05:09:30;;;;;;;0.30;0.30;;;;;;;19.49;53.71;101403.81;4805040;29;20442;-81
2023/09/19 05:11:56;;;;;;;6.70;0.52;;;;;;;19.68;53.58;101393.22;4805112;29;20402;-82
2023/09/19 05:14:23;;;;;;;0.10;0.10;;;;;;;19.76;53.18;101392.16;4804392;29;20486;-82
2023/09/19 05:16:48;;;;;;;0.10;0.10;;;;;;;19.84;52.98;101395.44;4804013;29;20497;-81
2023/09/19 05:19:14;;;;;;;0.10;0.10;;;;;;;19.84;52.95;101400.81;4802877;29;20391;-81
2023/09/19 05:21:39;;;;;;;0.20;0.20;;;;;;;19.96;52.90;101382.09;4804000;29;20430;-79
2023/09/19 05:24:14;;;;;;;0.33;0.33;;;;;;;20.05;52.53;101386.19;4804277;29;20394;-79
2023/09/19 05:26:40;;;;;;;0.10;0.10;;;;;;;20.01;52.49;101384.97;4804088;29;20736;-81
2023/09/19 05:29:07;;;;;;;0.10;0.10;;;;;;;20.07;52.26;101375.22;4802383;29;20484;-80
2023/09/19 05:31:36;;;;;;;0.32;0.32;;;;;;;20.05;52.19;101377.28;4788191;29;21004;-83
2023/09/19 05:34:04;;;;;;;1.00;0.27;;;;;;;20.03;52.25;101368.63;4804465;29;20402;-83
2023/09/19 05:36:31;;;;;;;0.15;0.15;;;;;;;20.06;52.31;101368.19;4803709;29;20488;-82
2023/09/19 05:38:56;;;;;;;0.25;0.25;;;;;;;20.06;52.28;101365.50;4802925;29;20496;-83
2023/09/19 05:41:22;;;;;;;0.10;0.10;;;;;;;20.11;52.17;101381.78;4802745;29;20505;-82
2023/09/19 05:43:50;;;;;;;0.10;0.10;;;;;;;20.13;51.93;101368.97;4802650;29;20978;-81
2023/09/19 05:46:16;;;;;;;0.80;0.80;;;;;;;20.24;51.81;101375.53;4802352;29;20863;-81
2023/09/19 05:48:44;;;;;;;0.30;0.30;;;;;;;20.21;51.87;101387.53;4802439;29;20894;-82
2023/09/19 05:51:09;;;;;;;0.20;0.20;;;;;;;20.16;52.08;101400.00;4803631;29;20406;-80
2023/09/19 05:53:36;;;;;;;0.20;0.20;;;;;;;20.01;52.09;101405.69;4803526;29;20411;-81
2023/09/19 05:56:02;;;;;;;0.10;0.10;;;;;;;19.93;52.00;101406.75;4802343;29;20471;-78
2023/09/19 05:58:28;;;;;;;0.17;0.17;;;;;;;20.09;51.80;101397.34;4802138;29;20791;-78
2023/09/19 06:01:01;;;;;;;0.10;0.10;;;;;;;20.12;51.92;101390.72;4802638;29;20395;-83
2023/09/19 06:03:29;;;;;;;0.10;0.10;;;;;;;20.15;52.09;101371.41;4787809;29;20823;-82
2023/09/19 06:05:57;;;;;;;0.15;0.15;;;;;;;20.17;52.24;101374.75;4803223;29;20422;-82
2023/09/19 06:08:23;;;;;;;0.65;0.65;;;;;;;20.26;52.10;101394.97;4804845;29;20949;-83
2023/09/19 06:10:48;;;;;;;0.40;0.40;;;;;;;20.23;52.01;101396.22;4804590;29;20479;-79
2023/09/19 06:13:18;;;;;;;0.10;0.10;;;;;;;20.24;52.28;101405.13;4805521;29;20869;-82
2023/09/19 06:15:43;;;;;;;0.15;0.15;;;;;;;20.22;52.53;101393.72;4805452;29;20421;-86
2023/09/19 06:18:17;;;;;;;0.50;0.40;;;;;;;20.30;52.49;101406.94;4804743;29;20418;-83
2023/09/19 06:20:47;;;;;;;0.10;0.10;;;;;;;20.37;52.37;101399.66;4806632;29;20430;-86
2023/09/19 06:23:13;;;;;;;0.20;0.20;;;;;;;20.33;52.32;101398.44;4805562;29;20445;-82
2023/09/19 06:25:39;;;;;;;0.30;0.17;;;;;;;20.41;52.13;101391.97;4804247;29;20884;-82
2023/09/19 06:28:05;;;;;;;0.43;0.43;;;;;;;20.42;52.27;101388.22;4807327;29;20410;-86
2023/09/19 06:30:33;;;;;;;0.20;0.20;;;;;;;20.36;52.25;101395.28;4802446;29;20402;-81
2023/09/19 06:33:00;;;;;;;0.10;0.10;;;;;;;20.36;52.06;101384.53;4802016;29;20415;-80
2023/09/19 06:35:30;;;;;;;0.20;0.20;;;;;;;20.39;52.08;101383.28;4800777;29;20942;-79
2023/09/19 06:37:57;;;;;;;0.10;0.10;;;;;;;20.53;51.81;101386.69;4802949;29;20410;-80
2023/09/19 06:40:24;;;;;;;0.10;0.10;;;;;;;20.57;51.53;101386.03;4801018;29;20407;-80
2023/09/19 06:42:52;;;;;;;0.13;0.13;;;;;;;20.69;51.41;101391.56;4801466;29;20471;-79
2023/09/19 06:45:18;;;;;;;0.43;0.43;;;;;;;20.60;51.35;101395.56;4786720;29;20426;-79
2023/09/19 06:47:45;;;;;;;0.20;0.20;;;;;;;20.40;51.57;101387.59;4801708;29;21087;-79
2023/09/19 06:50:15;;;;;;;0.30;0.30;;;;;;;20.42;51.66;101390.94;4801721;29;20589;-80
2023/09/19 06:52:41;;;;;;;0.20;0.20;;;;;;;20.65;51.55;101384.94;4801414;29;20417;-79
2023/09/19 06:55:09;;;;;;;0.20;0.20;;;;;;;20.86;51.00;101383.72;4801348;29;20532;-78
2023/09/19 06:57:35;;;;;;;0.38;0.38;;;;;;;21.32;50.22;101384.28;4800476;29;20467;-82
2023/09/19 07:00:01;;;;;;;0.20;0.20;;;;;;;21.57;49.95;101397.69;4800547;29;20411;-79
2023/09/19 07:02:30;;;;;;;0.40;0.40;;;;;;;21.33;49.55;101397.53;4803316;29;20530;-84
2023/09/19 07:04:55;;;;;;;0.20;0.20;;;;;;;21.07;49.89;101398.66;4805336;29;20445;-82
2023/09/19 07:07:21;;;;;;;0.03;0.03;;;;;;;21.12;49.79;101404.22;4806663;29;20786;-83
2023/09/19 07:09:51;;;;;;;0.30;0.30;;;;;;;20.88;49.61;101405.06;4807243;29;20406;-82
2023/09/19 07:12:17;;;;;;;0.10;0.10;;;;;;;20.69;49.75;101407.72;4806896;29;20499;-82
2023/09/19 07:14:44;;;;;;;0.10;0.10;;;;;;;20.73;49.73;101400.03;4804372;29;20842;-81
2023/09/19 07:17:09;;;;;;;0.20;0.20;;;;;;;20.88;49.62;101400.50;4804539;29;20938;-80
2023/09/19 07:19:35;;;;;;;0.10;0.10;;;;;;;20.97;49.42;101398.34;4806273;29;20398;-81
2023/09/19 07:22:02;;;;;;;0.30;0.30;;;;;;;21.14;49.29;101401.25;4805603;29;20494;-83
2023/09/19 07:24:28;;;;;;;1.38;1.20;;;;;;;21.16;49.32;101399.19;4806678;29;20444;-83
2023/09/19 07:26:54;;;;;;;0.20;0.20;;;;;;;20.99;49.48;101399.78;4806067;29;20414;-81
2023/09/19 07:29:20;;;;;;;0.17;0.17;;;;;;;20.96;49.51;101392.13;4805416;29;20410;-81
2023/09/19 07:31:47;;;;;;;0.10;0.10;;;;;;;21.03;49.49;101399.31;4806711;29;20768;-81
2023/09/19 07:34:14;;;;;;;0.10;0.10;;;;;;;21.22;49.16;101398.28;4806591;29;20828;-81
2023/09/19 07:36:41;;;;;;;0.22;0.22;;;;;;;21.26;48.83;101387.88;4806030;29;21263;-81
2023/09/19 07:39:07;;;;;;;0.17;0.17;;;;;;;21.43;48.55;101398.88;4805792;29;21222;-82
2023/09/19 07:41:33;;;;;;;0.15;0.15;;;;;;;21.31;48.67;101388.03;4804648;29;20399;-81
2023/09/19 07:43:59;;;;;;;0.10;0.10;;;;;;;21.30;48.49;101387.22;4789451;29;20419;-82
2023/09/19 07:46:25;;;;;;;0.20;0.20;;;;;;;21.32;48.33;101382.41;4804764;29;20744;-83
2023/09/19 07:48:54;;;;;;;0.25;0.25;;;;;;;21.43;48.33;101382.69;4805657;29;20910;-81
2023/09/19 07:51:20;;;;;;;0.20;0.20;;;;;;;21.57;48.18;101368.88;4805856;29;20403;-81
2023/09/19 07:53:49;;;;;;;0.20;0.20;;;;;;;21.58;48.09;101373.19;4804657;29;20445;-80
2023/09/19 07:56:15;;;;;;;0.30;0.30;;;;;;;21.38;48.42;101381.50;4804242;29;20418;-81
2023/09/19 07:58:43;;;;;;;0.10;0.10;;;;;;;21.57;48.37;101389.59;4804313;29;20402;-81
2023/09/19 08:01:10;;;;;;;0.60;0.50;;;;;;;21.73;47.96;101385.47;4804273;29;20658;-83
2023/09/19 08:03:40;;;;;;;0.28;0.28;;;;;;;21.78;47.72;101391.00;4804193;29;20760;-80
2023/09/19 08:06:07;;;;;;;0.00;0.00;;;;;;;21.77;47.73;101384.78;4804361;29;20430;-82
2023/09/19 08:08:37;;;;;;;0.10;0.10;;;;;;;21.80;47.70;101388.91;4804088;29;20410;-81
2023/09/19 08:11:11;;;;;;;0.38;0.38;;;;;;;21.77;47.35;101386.69;4789138;29;20417;-82
2023/09/19 08:13:47;;;;;;;0.10;0.10;;;;;;;21.87;47.28;101380.72;4804401;29;20422;-81
2023/09/19 08:16:17;;;;;;;0.10;0.10;;;;;;;21.77;47.31;101379.41;4804209;29;20895;-81
2023/09/19 08:18:48;;;;;;;0.20;0.20;;;;;;;21.74;47.36;101398.72;4805872;29;20448;-81
2023/09/19 08:21:15;;;;;;;0.30;0.30;;;;;;;21.85;47.48;101378.25;4774428;29;20415;-82
2023/09/19 08:23:41;;;;;;;0.20;0.20;;;;;;;21.98;47.34;101379.13;4805226;29;20784;-82
2023/09/19 08:26:10;;;;;;;0.68;0.60;;;;;;;22.09;47.18;101381.03;4803633;29;20957;-83
2023/09/19 08:28:36;;;;;;;0.15;0.15;;;;;;;22.17;47.50;101374.50;4803950;29;20849;-81
2023/09/19 08:31:04;;;;;;;0.10;0.10;;;;;;;22.23;47.39;101374.38;4806146;29;20425;-82
2023/09/19 08:33:35;;;;;;;0.10;0.10;;;;;;;22.16;47.35;101373.66;4805274;29;20989;-80
2023/09/19 08:36:04;;;;;;;0.20;0.20;;;;;;;22.20;47.28;101374.00;4803901;29;20799;-79
2023/09/19 08:38:35;;;;;;;0.40;0.40;;;;;;;22.26;46.84;101373.09;4805100;29;20406;-82
2023/09/19 08:41:06;;;;;;;0.20;0.20;;;;;;;22.28;46.86;101373.72;4803862;29;20484;-81
2023/09/19 08:43:34;;;;;;;0.10;0.10;;;;;;;22.36;47.02;101367.13;4805726;29;20421;-81
2023/09/19 08:46:24;;;;;;;0.20;0.20;;;;;;;22.43;46.48;101379.47;4805713;29;20441;-81
2023/09/19 08:49:04;;;;;;;0.10;0.10;;;;;;;22.46;46.44;101376.31;4788483;29;20414;-80
2023/09/19 08:51:50;;;;;;;0.13;0.13;;;;;;;22.30;46.40;101379.69;4804569;29;20414;-80
2023/09/19 08:54:29;;;;;;;0.20;0.20;;;;;;;22.25;46.53;101384.94;4804897;29;20437;-82
2023/09/19 08:56:59;;;;;;;0.40;0.38;;;;;;;22.43;46.22;101378.66;4817965;29;20918;-79
2023/09/19 08:59:26;;;;;;;0.10;0.10;;;;;;;22.68;46.13;101383.84;4803385;29;20487;-80
2023/09/19 09:01:54;;;;;;;0.22;0.22;;;;;;;22.71;45.63;101392.31;4804336;29;20414;-81
2023/09/19 09:04:22;;;;;;;0.35;0.28;;;;;;;22.83;45.28;101391.50;4788766;29;20525;-83
2023/09/19 09:06:53;;;;;;;0.30;0.30;;;;;;;22.75;45.36;101387.25;4788775;29;20439;-81
2023/09/19 09:09:20;;;;;;;0.20;0.20;;;;;;;22.80;45.88;101381.97;4788598;29;20414;-83
2023/09/19 09:11:52;;;;;;;0.10;0.10;;;;;;;22.97;45.76;101381.25;4803699;29;20435;-80
2023/09/19 09:14:34;;;;;;;0.20;0.20;;;;;;;22.98;45.48;101385.63;4804100;29;20918;-80
2023/09/19 09:16:59;;;;;;;0.10;0.10;;;;;;;23.02;45.20;101382.19;4803832;29;20787;-81
2023/09/19 09:19:26;;;;;;;0.22;0.22;;;;;;;23.05;45.07;101370.94;4802901;29;21028;-83
2023/09/19 09:21:53;;;;;;;0.25;0.25;;;;;;;23.08;45.08;101366.94;4816899;29;20418;-80
2023/09/19 09:24:33;;;;;;;0.20;0.20;;;;;;;23.40;44.74;101366.53;4803430;29;20417;-81
2023/09/19 09:27:02;;;;;;;0.70;0.60;;;;;;;23.63;44.37;101371.03;4803934;29;20403;-81
2023/09/19 09:29:51;;;;;;;0.25;0.25;;;;;;;23.78;44.71;101368.59;4803719;29;20402;-81
2023/09/19 09:32:24;;;;;;;0.20;0.20;;;;;;;23.97;44.35;101369.25;4802640;29;21057;-82
2023/09/19 09:34:53;;;;;;;0.30;0.30;;;;;;;23.77;43.57;101366.13;4788102;29;20422;-80
2023/09/19 09:37:20;;;;;;;0.28;0.28;;;;;;;23.72;43.88;101366.88;4802545;29;20444;-82
2023/09/19 09:42:40;;;;;;;0.40;0.30;;;;;;;23.87;43.93;101355.53;4802142;29;20896;-80
2023/09/19 09:48:15;;;;;;;0.20;0.20;;;;;;;23.74;43.82;101364.75;4802557;29;20430;-80
2023/09/19 09:53:28;;;;;;;0.25;0.25;;;;;;;24.12;43.36;101349.75;4787475;29;20414;-80
2023/09/19 09:56:14;;;;;;;0.20;0.20;;;;;;;24.20;43.17;101340.38;4802112;29;20454;-82
2023/09/19 09:59:17;;;;;;;0.17;0.17;;;;;;;24.19;43.20;101350.41;4803397;29;20466;-79
2023/09/19 10:01:48;;;;;;;0.15;0.15;;;;;;;24.05;43.28;101349.88;4791015;29;20435;-79
2023/09/19 10:04:36;;;;;;;0.50;0.50;;;;;;;24.09;43.22;101342.09;4802158;29;20874;-81
2023/09/19 10:07:11;;;;;;;0.30;0.30;;;;;;;24.13;42.93;101331.59;4801938;29;20514;-79
2023/09/19 10:09:50;;;;;;;0.47;0.47;;;;;;;24.06;42.94;101318.22;4802283;29;20418;-82
2023/09/19 10:12:18;;;;;;;0.32;0.32;;;;;;;24.31;42.87;101315.13;4803052;29;20406;-80
2023/09/19 10:14:47;;;;;;;0.13;0.13;;;;;;;24.49;42.47;101308.59;4801858;29;21063;-79
2023/09/19 10:17:20;;;;;;;0.10;0.10;;;;;;;24.36;42.42;101314.34;4802077;29;20490;-81
2023/09/19 10:19:57;;;;;;;0.10;0.10;;;;;;;24.40;42.54;101316.34;4801813;29;20757;-83
2023/09/19 10:22:32;;;;;;;0.30;0.30;;;;;;;24.52;42.42;101310.81;4801714;29;20502;-81
2023/09/19 10:25:00;;;;;;;0.15;0.15;;;;;;;24.70;42.20;101320.56;4803200;29;20466;-80
2023/09/19 10:27:29;;;;;;;0.30;0.30;;;;;;;24.72;42.16;101317.63;4800573;29;20505;-80
2023/09/19 10:30:04;;;;;;;0.20;0.20;;;;;;;24.79;42.16;101319.09;4800404;29;20455;-80
2023/09/19 10:32:33;;;;;;;0.10;0.10;;;;;;;24.73;42.20;101314.66;4800449;29;20418;-79
2023/09/19 10:35:00;;;;;;;0.10;0.10;;;;;;;24.69;42.06;101305.41;4786918;29;20407;-81
2023/09/19 10:37:37;;;;;;;0.40;0.40;;;;;;;24.59;42.00;101300.63;4806170;29;20418;-84
2023/09/19 10:40:08;;;;;;;0.80;0.70;;;;;;;24.49;42.23;101305.91;4806643;29;20712;-83
2023/09/19 10:42:37;;;;;;;0.17;0.17;;;;;;;24.59;42.22;101289.78;4805614;29;20449;-79
2023/09/19 10:45:12;;;;;;;0.38;0.28;;;;;;;24.73;42.20;101292.97;4790827;29;20454;-81
2023/09/19 10:47:38;;;;;;;0.22;0.22;;;;;;;24.84;42.26;101293.94;4805384;29;20497;-80
2023/09/19 10:50:12;;;;;;;0.10;0.10;;;;;;;24.88;42.11;101297.75;4804512;29;20424;-81
2023/09/19 10:52:42;;;;;;;0.20;0.20;;;;;;;24.92;42.17;101295.38;4805740;29;20504;-82
2023/09/19 10:55:11;;;;;;;0.13;0.13;;;;;;;25.01;42.15;101291.13;4805838;29;20922;-83
2023/09/19 10:57:46;;;;;;;0.60;0.43;;;;;;;25.09;41.88;101296.13;4806041;29;20402;-83
2023/09/19 11:00:24;;;;;;;0.20;0.20;;;;;;;25.05;41.71;101297.72;4806916;29;20414;-81
2023/09/19 11:03:30;;;;;;;0.50;0.40;;;;;;;25.03;41.69;101289.03;4805265;29;20398;-80
2023/09/19 11:06:09;;;;;;;0.10;0.10;;;;;;;25.02;42.03;101287.38;4736040;30;20525;-80
2023/09/19 11:09:22;;;;;;;0.10;0.10;;;;;;;24.93;42.81;101284.28;4787305;29;20413;-80
2023/09/19 11:11:55;;;;;;;0.07;0.07;;;;;;;24.93;42.85;101278.03;4821312;29;20480;-81
2023/09/19 11:14:29;;;;;;;0.30;0.30;;;;;;;25.04;42.93;101274.38;4821797;29;20415;-80
2023/09/19 11:17:17;;;;;;;0.30;0.30;;;;;;;25.05;43.01;101269.75;4820442;29;20401;-82
2023/09/19 11:22:56;;;;;;;0.38;0.38;;;;;;;25.15;43.28;101264.47;4821720;29;20420;-79
2023/09/19 11:25:50;;;;;;;0.30;0.30;;;;;;;25.21;42.98;101259.91;4821966;29;20871;-82
2023/09/19 11:28:26;;;;;;;0.10;0.10;;;;;;;25.21;43.02;101249.06;4795560;29;20417;-80
2023/09/19 11:31:36;;;;;;;0.20;0.20;;;;;;;25.11;42.48;101256.00;4808526;29;20850;-81
2023/09/19 11:34:37;;;;;;;0.20;0.20;;;;;;;25.10;42.43;101250.84;4832522;29;20504;-80
2023/09/19 11:37:04;;;;;;;0.20;0.20;;;;;;;25.28;42.04;101253.25;4806540;29;20504;-80
2023/09/19 11:39:30;;;;;;;0.30;0.20;;;;;;;25.21;42.54;101247.19;4814279;29;20413;-84
2023/09/19 11:41:56;;;;;;;0.30;0.30;;;;;;;25.30;42.17;101239.41;4805886;29;20403;-82
2023/09/19 11:44:55;;;;;;;0.70;0.43;;;;;;;25.32;41.55;101238.09;4804565;29;20429;-80
2023/09/19 11:47:24;;;;;;;0.10;0.10;;;;;;;25.50;41.21;101239.63;4805133;29;20424;-80
2023/09/19 11:49:52;;;;;;;0.10;0.10;;;;;;;25.59;41.29;101233.72;4806117;29;20459;-81
2023/09/19 11:52:24;;;;;;;0.13;0.13;;;;;;;25.70;41.29;101230.84;4805247;29;20419;-81